sensor_id;sensor_type;location;lat;lon;timestamp;temperature;humidity
6174;DHT22;3120;48.796;9.796;2023-07-31T13:36:08;25.20;64.60
6174;DHT22;3120;48.796;9.796;2023-07-31T13:38:52;25.00;65.70
6174;DHT22;3120;48.796;9.796;2023-07-31T13:41:20;24.60;67.60
6174;DHT22;3120;48.796;9.796;2023-07-31T13:43:46;24.60;68.90
6174;DHT22;3120;48.796;9.796;2023-07-31T13:46:11;24.50;69.70
6174;DHT22;3120;48.796;9.796;2023-07-31T13:48:37;24.50;69.90
6174;DHT22;3120;48.796;9.796;2023-07-31T13:51:03;24.60;69.30
6174;DHT22;3120;48.796;9.796;2023-07-31T13:53:28;24.80;68.60
6174;DHT22;3120;48.796;9.796;2023-07-31T13:55:54;24.80;69.60
6174;DHT22;3120;48.796;9.796;2023-07-31T13:58:20;24.70;69.50
6174;DHT22;3120;48.796;9.796;2023-07-31T14:00:45;25.00;71.60
6174;DHT22;3120;48.796;9.796;2023-07-31T14:03:11;24.20;70.60
6174;DHT22;3120;48.796;9.796;2023-07-31T14:05:37;24.10;72.70
6174;DHT22;3120;48.796;9.796;2023-07-31T14:08:03;24.10;72.00
6174;DHT22;3120;48.796;9.796;2023-07-31T14:10:28;24.10;71.80
6174;DHT22;3120;48.796;9.796;2023-07-31T14:12:54;24.50;72.20
6174;DHT22;3120;48.796;9.796;2023-07-31T14:15:21;23.90;72.80
6174;DHT22;3120;48.796;9.796;2023-07-31T14:17:47;23.90;73.00
6174;DHT22;3120;48.796;9.796;2023-07-31T14:20:14;23.80;73.60
6174;DHT22;3120;48.796;9.796;2023-07-31T14:22:39;23.80;74.30
6174;DHT22;3120;48.796;9.796;2023-07-31T14:25:05;23.60;76.10
6174;DHT22;3120;48.796;9.796;2023-07-31T14:27:31;23.70;76.30
6174;DHT22;3120;48.796;9.796;2023-07-31T14:29:56;23.80;74.60
6174;DHT22;3120;48.796;9.796;2023-07-31T14:32:22;23.60;74.00
6174;DHT22;3120;48.796;9.796;2023-07-31T14:34:50;24.10;74.00
6174;DHT22;3120;48.796;9.796;2023-07-31T15:37:21;24.50;75.00
6174;DHT22;3120;48.796;9.796;2023-07-31T15:39:47;24.50;75.50
6174;DHT22;3120;48.796;9.796;2023-07-31T15:42:13;24.50;73.90
6174;DHT22;3120;48.796;9.796;2023-07-31T15:44:39;24.40;76.10
6174;DHT22;3120;48.796;9.796;2023-07-31T15:47:04;24.70;73.90
6174;DHT22;3120;48.796;9.796;2023-07-31T15:49:30;25.00;71.20
6174;DHT22;3120;48.796;9.796;2023-07-31T15:51:56;25.00;71.40
6174;DHT22;3120;48.796;9.796;2023-07-31T15:54:22;25.10;70.70
6174;DHT22;3120;48.796;9.796;2023-07-31T15:56:48;25.60;67.60
6174;DHT22;3120;48.796;9.796;2023-07-31T15:59:14;26.20;66.00
6174;DHT22;3120;48.796;9.796;2023-07-31T16:01:40;27.00;62.20
6174;DHT22;3120;48.796;9.796;2023-07-31T16:04:05;27.50;58.80
6174;DHT22;3120;48.796;9.796;2023-07-31T16:06:31;27.10;59.50
6174;DHT22;3120;48.796;9.796;2023-07-31T16:09:00;26.50;61.90
6174;DHT22;3120;48.796;9.796;2023-07-31T16:11:26;26.10;64.30
6174;DHT22;3120;48.796;9.796;2023-07-31T16:13:52;25.80;64.90
6174;DHT22;3120;48.796;9.796;2023-07-31T16:16:18;25.70;66.40
6174;DHT22;3120;48.796;9.796;2023-07-31T16:18:46;25.70;66.10
6174;DHT22;3120;48.796;9.796;2023-07-31T16:21:12;25.90;63.80
6174;DHT22;3120;48.796;9.796;2023-07-31T16:23:38;25.80;64.70
6174;DHT22;3120;48.796;9.796;2023-07-31T16:26:03;25.80;65.40
6174;DHT22;3120;48.796;9.796;2023-07-31T16:28:29;26.50;62.30
6174;DHT22;3120;48.796;9.796;2023-07-31T16:30:54;26.90;61.10
6174;DHT22;3120;48.796;9.796;2023-07-31T16:33:20;27.40;59.50
6174;DHT22;3120;48.796;9.796;2023-07-31T16:35:45;27.90;56.10
6174;DHT22;3120;48.796;9.796;2023-07-31T16:38:11;27.60;56.00
6174;DHT22;3120;48.796;9.796;2023-07-31T16:40:36;27.50;56.60
6174;DHT22;3120;48.796;9.796;2023-07-31T16:43:02;27.90;55.00
6174;DHT22;3120;48.796;9.796;2023-07-31T16:45:27;28.10;54.40
6174;DHT22;3120;48.796;9.796;2023-07-31T16:47:53;28.30;53.40
6174;DHT22;3120;48.796;9.796;2023-07-31T16:50:18;28.50;55.20
6174;DHT22;3120;48.796;9.796;2023-07-31T16:52:44;27.30;56.10
6174;DHT22;3120;48.796;9.796;2023-07-31T16:55:09;27.10;57.70
6174;DHT22;3120;48.796;9.796;2023-07-31T16:57:35;26.50;59.80
6174;DHT22;3120;48.796;9.796;2023-07-31T17:00:00;25.80;64.40
6174;DHT22;3120;48.796;9.796;2023-07-31T17:02:26;25.40;65.90
6174;DHT22;3120;48.796;9.796;2023-07-31T17:04:51;25.40;65.30
6174;DHT22;3120;48.796;9.796;2023-07-31T17:07:17;25.30;66.10
6174;DHT22;3120;48.796;9.796;2023-07-31T17:09:46;25.00;68.00
6174;DHT22;3120;48.796;9.796;2023-07-31T17:12:11;24.60;69.30
6174;DHT22;3120;48.796;9.796;2023-07-31T17:14:37;24.60;70.70
6174;DHT22;3120;48.796;9.796;2023-07-31T17:17:02;24.30;72.00
6174;DHT22;3120;48.796;9.796;2023-07-31T17:19:28;24.20;73.60
6174;DHT22;3120;48.796;9.796;2023-07-31T17:21:53;24.10;75.40
6174;DHT22;3120;48.796;9.796;2023-07-31T17:24:19;24.20;74.60
6174;DHT22;3120;48.796;9.796;2023-07-31T17:26:44;24.00;75.80
6174;DHT22;3120;48.796;9.796;2023-07-31T17:29:14;23.90;75.90
6174;DHT22;3120;48.796;9.796;2023-07-31T17:31:41;23.60;77.10
6174;DHT22;3120;48.796;9.796;2023-07-31T19:53:51;19.10;99.90
6174;DHT22;3120;48.796;9.796;2023-07-31T19:56:17;19.00;99.90
6174;DHT22;3120;48.796;9.796;2023-07-31T19:58:42;18.80;99.90
6174;DHT22;3120;48.796;9.796;2023-07-31T20:01:09;18.70;99.90
6174;DHT22;3120;48.796;9.796;2023-07-31T20:03:34;18.70;99.90
6174;DHT22;3120;48.796;9.796;2023-07-31T20:06:00;18.60;99.90
6174;DHT22;3120;48.796;9.796;2023-07-31T20:08:25;18.50;99.90
6174;DHT22;3120;48.796;9.796;2023-07-31T20:10:50;18.50;99.90
6174;DHT22;3120;48.796;9.796;2023-07-31T20:13:16;18.50;99.90
6174;DHT22;3120;48.796;9.796;2023-07-31T20:15:41;18.50;99.90
6174;DHT22;3120;48.796;9.796;2023-07-31T20:18:07;18.50;99.90
6174;DHT22;3120;48.796;9.796;2023-07-31T20:20:33;18.60;99.90
6174;DHT22;3120;48.796;9.796;2023-07-31T20:22:58;18.60;99.90
6174;DHT22;3120;48.796;9.796;2023-07-31T20:25:24;18.70;99.90
6174;DHT22;3120;48.796;9.796;2023-07-31T20:27:49;18.50;99.90
6174;DHT22;3120;48.796;9.796;2023-07-31T20:30:15;18.40;99.90
6174;DHT22;3120;48.796;9.796;2023-07-31T20:32:40;18.40;99.90
6174;DHT22;3120;48.796;9.796;2023-07-31T20:35:06;18.40;99.90
6174;DHT22;3120;48.796;9.796;2023-07-31T20:37:32;18.40;99.90
6174;DHT22;3120;48.796;9.796;2023-07-31T20:39:58;18.40;99.90
6174;DHT22;3120;48.796;9.796;2023-07-31T20:42:27;18.30;99.90
6174;DHT22;3120;48.796;9.796;2023-07-31T20:44:53;18.40;99.90
6174;DHT22;3120;48.796;9.796;2023-07-31T20:47:18;18.50;99.90
6174;DHT22;3120;48.796;9.796;2023-07-31T20:49:44;18.40;99.90
6174;DHT22;3120;48.796;9.796;2023-07-31T20:52:09;18.40;99.90
6174;DHT22;3120;48.796;9.796;2023-07-31T20:54:35;18.30;99.90
6174;DHT22;3120;48.796;9.796;2023-07-31T20:57:00;18.20;99.90
6174;DHT22;3120;48.796;9.796;2023-07-31T20:59:26;18.20;99.90
6174;DHT22;3120;48.796;9.796;2023-07-31T21:01:51;18.20;99.90
6174;DHT22;3120;48.796;9.796;2023-07-31T21:04:17;18.20;99.90
6174;DHT22;3120;48.796;9.796;2023-07-31T21:06:42;18.20;99.90
6174;DHT22;3120;48.796;9.796;2023-07-31T21:09:08;18.30;99.90
6174;DHT22;3120;48.796;9.796;2023-07-31T21:11:33;18.30;99.90
6174;DHT22;3120;48.796;9.796;2023-07-31T21:13:59;18.20;99.90
6174;DHT22;3120;48.796;9.796;2023-07-31T21:16:25;18.20;99.90
6174;DHT22;3120;48.796;9.796;2023-07-31T21:18:51;18.30;99.90
6174;DHT22;3120;48.796;9.796;2023-07-31T21:21:16;18.20;99.90
6174;DHT22;3120;48.796;9.796;2023-07-31T21:23:42;18.30;99.90
6174;DHT22;3120;48.796;9.796;2023-07-31T21:26:07;18.30;99.90
6174;DHT22;3120;48.796;9.796;2023-07-31T21:28:33;18.30;99.90
6174;DHT22;3120;48.796;9.796;2023-07-31T21:30:58;18.30;99.90
6174;DHT22;3120;48.796;9.796;2023-07-31T21:33:24;18.10;99.90
6174;DHT22;3120;48.796;9.796;2023-07-31T21:35:50;18.00;99.90
6174;DHT22;3120;48.796;9.796;2023-07-31T21:38:15;17.90;99.90
6174;DHT22;3120;48.796;9.796;2023-07-31T21:40:41;17.80;99.90
6174;DHT22;3120;48.796;9.796;2023-07-31T21:43:07;17.80;99.90
6174;DHT22;3120;48.796;9.796;2023-07-31T21:45:32;17.80;99.90
6174;DHT22;3120;48.796;9.796;2023-07-31T21:47:57;17.70;99.90
6174;DHT22;3120;48.796;9.796;2023-07-31T21:50:23;17.70;99.90
6174;DHT22;3120;48.796;9.796;2023-07-31T21:52:49;17.80;99.90
6174;DHT22;3120;48.796;9.796;2023-07-31T21:55:14;17.80;99.90
6174;DHT22;3120;48.796;9.796;2023-07-31T21:57:40;17.80;99.90
6174;DHT22;3120;48.796;9.796;2023-07-31T22:00:06;17.80;99.90
6174;DHT22;3120;48.796;9.796;2023-07-31T22:02:32;17.90;99.90
6174;DHT22;3120;48.796;9.796;2023-07-31T22:04:57;17.80;99.90
6174;DHT22;3120;48.796;9.796;2023-07-31T22:07:23;17.80;99.90
6174;DHT22;3120;48.796;9.796;2023-07-31T22:09:48;17.70;99.90
6174;DHT22;3120;48.796;9.796;2023-07-31T22:12:14;17.60;99.90
6174;DHT22;3120;48.796;9.796;2023-07-31T22:14:39;17.60;99.90
6174;DHT22;3120;48.796;9.796;2023-07-31T22:17:05;17.70;99.90
6174;DHT22;3120;48.796;9.796;2023-07-31T22:19:31;17.70;99.90
6174;DHT22;3120;48.796;9.796;2023-07-31T22:21:56;17.70;99.90
6174;DHT22;3120;48.796;9.796;2023-07-31T22:24:22;17.70;99.90
6174;DHT22;3120;48.796;9.796;2023-07-31T22:26:48;17.60;99.90
6174;DHT22;3120;48.796;9.796;2023-07-31T22:29:13;17.70;99.90
6174;DHT22;3120;48.796;9.796;2023-07-31T22:31:39;17.60;99.90
6174;DHT22;3120;48.796;9.796;2023-07-31T22:34:04;17.60;99.90
6174;DHT22;3120;48.796;9.796;2023-07-31T22:36:30;17.60;99.90
6174;DHT22;3120;48.796;9.796;2023-07-31T22:38:56;17.60;99.90
6174;DHT22;3120;48.796;9.796;2023-07-31T22:41:21;17.60;99.90
6174;DHT22;3120;48.796;9.796;2023-07-31T22:43:47;17.60;99.90
6174;DHT22;3120;48.796;9.796;2023-07-31T22:46:12;17.60;99.90
6174;DHT22;3120;48.796;9.796;2023-07-31T22:48:38;17.50;99.90
6174;DHT22;3120;48.796;9.796;2023-07-31T22:51:05;17.50;99.90
6174;DHT22;3120;48.796;9.796;2023-07-31T22:53:31;17.50;99.90
6174;DHT22;3120;48.796;9.796;2023-07-31T22:56:05;17.40;99.90
6174;DHT22;3120;48.796;9.796;2023-07-31T22:58:31;17.50;99.90
6174;DHT22;3120;48.796;9.796;2023-07-31T23:01:00;17.50;99.90
6174;DHT22;3120;48.796;9.796;2023-07-31T23:03:25;17.40;99.90
6174;DHT22;3120;48.796;9.796;2023-07-31T23:05:51;17.50;99.90
6174;DHT22;3120;48.796;9.796;2023-07-31T23:08:16;17.50;99.90
6174;DHT22;3120;48.796;9.796;2023-07-31T23:10:46;17.50;99.90
6174;DHT22;3120;48.796;9.796;2023-07-31T23:13:12;17.50;99.90
6174;DHT22;3120;48.796;9.796;2023-07-31T23:15:37;17.70;99.90
6174;DHT22;3120;48.796;9.796;2023-07-31T23:18:03;17.70;99.90
6174;DHT22;3120;48.796;9.796;2023-07-31T23:20:28;17.70;99.90
6174;DHT22;3120;48.796;9.796;2023-07-31T23:22:55;17.70;99.90
6174;DHT22;3120;48.796;9.796;2023-07-31T23:25:20;17.60;99.90
6174;DHT22;3120;48.796;9.796;2023-07-31T23:27:46;17.50;99.90
6174;DHT22;3120;48.796;9.796;2023-07-31T23:30:11;17.50;99.90
6174;DHT22;3120;48.796;9.796;2023-07-31T23:32:37;17.50;99.90
6174;DHT22;3120;48.796;9.796;2023-07-31T23:35:02;17.50;99.90
6174;DHT22;3120;48.796;9.796;2023-07-31T23:37:28;17.40;99.90
6174;DHT22;3120;48.796;9.796;2023-07-31T23:39:53;17.50;99.90
6174;DHT22;3120;48.796;9.796;2023-07-31T23:42:19;17.40;99.90
6174;DHT22;3120;48.796;9.796;2023-07-31T23:44:44;17.30;99.90
6174;DHT22;3120;48.796;9.796;2023-07-31T23:47:10;17.40;99.90
6174;DHT22;3120;48.796;9.796;2023-07-31T23:49:35;17.30;99.90
6174;DHT22;3120;48.796;9.796;2023-07-31T23:52:01;17.20;99.90
6174;DHT22;3120;48.796;9.796;2023-07-31T23:54:26;17.30;99.90
6174;DHT22;3120;48.796;9.796;2023-07-31T23:56:53;17.30;99.90
6174;DHT22;3120;48.796;9.796;2023-07-31T23:59:20;17.40;99.90
